createdAt,value
2019-05-04T00:01:39.633Z,11.70
2019-05-04T00:04:08.996Z,11.70
2019-05-04T00:06:48.188Z,11.70
2019-05-04T00:09:09.594Z,11.70
2019-05-04T00:11:38.878Z,11.70
2019-05-04T00:14:08.252Z,11.80
2019-05-04T00:16:37.544Z,11.60
2019-05-04T00:19:06.840Z,11.60
2019-05-04T00:21:36.120Z,11.60
2019-05-04T00:24:05.424Z,11.60
2019-05-04T00:26:34.748Z,11.50
2019-05-04T00:29:05.482Z,11.60
2019-05-04T00:31:34.899Z,11.70
2019-05-04T00:34:05.910Z,11.80
2019-05-04T00:36:36.854Z,11.80
2019-05-04T00:39:15.406Z,11.80
2019-05-04T00:41:45.319Z,11.80
2019-05-04T00:44:15.785Z,11.70
2019-05-04T00:46:45.339Z,11.70
2019-05-04T00:49:15.517Z,11.60
2019-05-04T00:51:45.868Z,11.70
2019-05-04T00:54:15.443Z,11.70
2019-05-04T00:56:48.849Z,11.80
2019-05-04T00:59:19.784Z,11.80
2019-05-04T01:02:06.048Z,11.70
2019-05-04T01:04:35.583Z,11.70
2019-05-04T01:07:17.347Z,11.70
2019-05-04T01:09:36.191Z,11.70
2019-05-04T01:12:05.594Z,11.70
2019-05-04T01:14:35.161Z,11.70
2019-05-04T01:17:05.526Z,11.70
2019-05-04T01:19:35.738Z,11.70
2019-05-04T01:22:05.706Z,11.80
2019-05-04T01:24:35.002Z,11.70
2019-05-04T01:27:05.668Z,11.60
2019-05-04T01:29:35.663Z,11.60
2019-05-04T01:32:05.244Z,11.60
2019-05-04T01:34:36.207Z,11.60
2019-05-04T01:37:07.130Z,11.60
2019-05-04T01:39:44.747Z,11.60
2019-05-04T01:42:15.407Z,11.60
2019-05-04T01:44:44.959Z,11.50
2019-05-04T01:47:15.499Z,11.40
2019-05-04T01:49:44.957Z,11.40
2019-05-04T01:52:15.815Z,11.40
2019-05-04T01:54:45.611Z,11.40
2019-05-04T01:57:16.823Z,11.50
2019-05-04T01:59:47.771Z,11.60
2019-05-04T02:02:17.157Z,11.50
2019-05-04T02:04:46.725Z,11.60
2019-05-04T02:07:16.355Z,11.50
2019-05-04T02:09:45.663Z,11.50
2019-05-04T02:12:15.468Z,11.50
2019-05-04T02:14:45.180Z,11.50
2019-05-04T02:17:15.365Z,11.50
2019-05-04T02:19:45.279Z,11.40
2019-05-04T02:22:22.086Z,11.40
2019-05-04T02:24:55.051Z,11.40
2019-05-04T02:27:28.638Z,11.30
2019-05-04T02:30:02.349Z,11.30
2019-05-04T02:32:35.924Z,11.40
2019-05-04T02:35:06.236Z,11.20
2019-05-04T02:37:36.978Z,11.20
2019-05-04T02:40:26.139Z,11.20
2019-05-04T02:42:56.633Z,11.30
2019-05-04T02:45:26.655Z,11.30
2019-05-04T02:48:16.392Z,11.30
2019-05-04T02:50:56.286Z,11.30
2019-05-04T02:53:25.992Z,11.20
2019-05-04T02:55:55.651Z,11.20
2019-05-04T02:58:25.615Z,11.20
2019-05-04T03:00:56.338Z,11.20
2019-05-04T03:03:25.745Z,11.10
2019-05-04T03:05:56.306Z,11.00
2019-05-04T03:08:33.236Z,11.00
2019-05-04T03:10:56.788Z,11.10
2019-05-04T03:13:26.076Z,11.00
2019-05-04T03:15:55.475Z,11.00
2019-05-04T03:18:35.663Z,11.00
2019-05-04T03:21:15.337Z,11.00
2019-05-04T03:23:45.882Z,10.90
2019-05-04T03:26:15.813Z,10.90
2019-05-04T03:28:46.280Z,10.90
2019-05-04T03:31:19.140Z,10.90
2019-05-04T03:33:48.557Z,10.90
2019-05-04T03:36:23.563Z,10.90
2019-05-04T03:38:53.843Z,10.90
2019-05-04T03:41:20.118Z,10.80
2019-05-04T03:43:49.656Z,10.70
2019-05-04T03:46:20.586Z,10.70
2019-05-04T03:48:56.561Z,10.70
2019-05-04T03:51:27.344Z,10.70
2019-05-04T03:53:56.645Z,10.70
2019-05-04T03:56:26.236Z,10.80
2019-05-04T03:58:56.278Z,10.70
2019-05-04T04:01:26.416Z,10.70
2019-05-04T04:03:56.329Z,10.70
2019-05-04T04:06:26.016Z,10.70
2019-05-04T04:09:05.570Z,10.70
2019-05-04T04:11:26.649Z,10.70
2019-05-04T04:13:56.130Z,10.50
2019-05-04T04:16:30.230Z,10.40
2019-05-04T04:18:59.540Z,10.40
2019-05-04T04:21:28.845Z,10.40
2019-05-04T04:24:00.112Z,10.30
2019-05-04T04:26:31.163Z,9.90
2019-05-04T04:29:02.387Z,9.70
2019-05-04T04:31:31.692Z,9.30
2019-05-04T04:34:01.759Z,9.10
2019-05-04T04:36:34.774Z,9.00
2019-05-04T04:39:05.645Z,8.70
2019-05-04T04:41:35.561Z,8.50
2019-05-04T04:44:06.190Z,8.40
2019-05-04T04:46:35.895Z,8.20
2019-05-04T04:49:06.274Z,8.10
2019-05-04T04:51:36.230Z,8.10
2019-05-04T04:54:05.906Z,7.80
2019-05-04T04:56:37.014Z,7.70
2019-05-04T04:59:15.293Z,7.70
2019-05-04T05:01:48.334Z,7.60
2019-05-04T05:04:17.419Z,7.60
2019-05-04T05:06:46.742Z,7.40
2019-05-04T05:09:16.069Z,7.40
2019-05-04T05:11:45.720Z,7.40
2019-05-04T05:14:15.098Z,7.30
2019-05-04T05:16:44.860Z,7.10
2019-05-04T05:19:15.239Z,6.90
2019-05-04T05:21:44.999Z,6.80
2019-05-04T05:24:14.922Z,6.60
2019-05-04T05:26:45.469Z,6.40
2019-05-04T05:29:15.335Z,6.40
2019-05-04T05:31:52.361Z,6.20
2019-05-04T05:34:29.254Z,6.00
2019-05-04T05:36:58.531Z,5.80
2019-05-04T05:39:28.071Z,5.50
2019-05-04T05:41:59.661Z,5.50
2019-05-04T05:44:30.265Z,5.40
2019-05-04T05:47:01.151Z,5.40
2019-05-04T05:49:37.767Z,5.40
2019-05-04T05:52:11.326Z,5.40
2019-05-04T05:54:44.587Z,5.30
2019-05-04T05:57:20.612Z,5.20
2019-05-04T06:00:02.489Z,5.30
2019-05-04T06:02:27.012Z,5.30
2019-05-04T06:05:14.438Z,5.10
2019-05-04T06:07:45.354Z,4.90
2019-05-04T06:10:26.632Z,4.90
2019-05-04T06:13:01.222Z,4.90
2019-05-04T06:15:40.887Z,5.10
2019-05-04T06:18:19.404Z,5.20
2019-05-04T06:20:56.612Z,5.20
2019-05-04T06:23:29.312Z,5.30
2019-05-04T06:26:01.015Z,5.20
2019-05-04T06:28:34.773Z,5.00
2019-05-04T06:31:15.118Z,5.10
2019-05-04T06:33:51.943Z,5.20
2019-05-04T06:36:18.446Z,5.30
2019-05-04T06:39:05.866Z,5.20
2019-05-04T06:41:36.926Z,4.90
2019-05-04T06:44:07.771Z,4.90
2019-05-04T06:46:38.695Z,4.90
2019-05-04T06:49:11.407Z,4.90
2019-05-04T06:51:47.775Z,5.00
2019-05-04T06:54:48.606Z,5.00
2019-05-04T06:57:07.499Z,5.00
2019-05-04T06:59:36.788Z,5.20
2019-05-04T07:02:06.063Z,5.20
2019-05-04T07:04:42.221Z,5.20
2019-05-04T07:07:12.931Z,5.30
2019-05-04T07:09:49.116Z,5.40
2019-05-04T07:12:11.431Z,5.40
2019-05-04T07:14:41.118Z,5.70
2019-05-04T07:17:15.067Z,6.20
2019-05-04T07:19:41.447Z,6.20
2019-05-04T07:22:10.715Z,6.00
2019-05-04T07:24:40.020Z,5.80
2019-05-04T07:27:14.021Z,5.70
2019-05-04T07:29:40.268Z,5.60
2019-05-04T07:32:11.207Z,5.50
2019-05-04T07:34:46.297Z,5.60
2019-05-04T07:37:20.125Z,5.80
2019-05-04T07:40:04.610Z,5.60
2019-05-04T07:42:29.960Z,5.40
2019-05-04T07:44:55.870Z,5.30
2019-05-04T07:47:29.176Z,5.50
2019-05-04T07:49:58.059Z,5.60
2019-05-04T07:52:28.441Z,5.40
2019-05-04T07:54:58.019Z,5.30
2019-05-04T07:57:29.086Z,5.30
2019-05-04T07:59:59.864Z,5.20
2019-05-04T08:02:29.289Z,5.20
2019-05-04T08:04:58.891Z,5.30
2019-05-04T08:07:30.328Z,5.50
2019-05-04T08:09:59.163Z,5.50
2019-05-04T08:12:42.634Z,5.60
2019-05-04T08:15:13.385Z,5.70
2019-05-04T08:17:41.205Z,5.70
2019-05-04T08:20:16.486Z,5.80
2019-05-04T08:22:45.199Z,5.80
2019-05-04T08:25:14.659Z,6.10
2019-05-04T08:27:45.340Z,6.40
2019-05-04T08:30:15.443Z,6.30
2019-05-04T08:32:49.550Z,6.20
2019-05-04T08:35:20.155Z,6.20
2019-05-04T08:37:47.075Z,6.30
2019-05-04T08:40:16.779Z,6.30
2019-05-04T08:42:48.141Z,6.50
2019-05-04T08:45:20.532Z,6.70
2019-05-04T08:47:57.399Z,7.00
2019-05-04T08:50:27.395Z,6.90
2019-05-04T08:53:07.052Z,6.90
2019-05-04T08:55:39.578Z,6.90
2019-05-04T08:58:25.091Z,7.00
2019-05-04T09:00:48.237Z,7.00
2019-05-04T09:03:25.837Z,6.90
2019-05-04T09:06:11.862Z,6.90
2019-05-04T09:08:26.898Z,6.80
2019-05-04T09:11:08.862Z,7.00
2019-05-04T09:13:27.167Z,7.00
2019-05-04T09:15:59.623Z,7.20
2019-05-04T09:18:29.560Z,7.40
2019-05-04T09:20:58.464Z,7.30
2019-05-04T09:23:28.459Z,7.30
2019-05-04T09:26:02.281Z,7.20
2019-05-04T09:28:28.888Z,7.40
2019-05-04T09:31:01.851Z,7.50
2019-05-04T09:33:33.199Z,7.50
2019-05-04T09:36:04.682Z,7.50
2019-05-04T09:38:32.524Z,7.50
2019-05-04T09:41:04.815Z,7.60
2019-05-04T09:43:39.368Z,7.60
2019-05-04T09:46:10.416Z,7.70
2019-05-04T09:48:39.789Z,7.80
2019-05-04T09:51:09.980Z,8.30
2019-05-04T09:53:39.375Z,8.30
2019-05-04T09:56:10.087Z,8.40
2019-05-04T09:58:39.984Z,8.70
2019-05-04T10:01:09.531Z,8.60
2019-05-04T10:03:39.143Z,8.70
2019-05-04T10:06:08.488Z,8.80
2019-05-04T10:08:38.163Z,8.80
2019-05-04T10:11:27.556Z,8.80
2019-05-04T10:14:15.127Z,8.60
2019-05-04T10:17:05.008Z,8.50
2019-05-04T10:19:35.150Z,8.30
2019-05-04T10:22:04.736Z,8.50
2019-05-04T10:24:38.675Z,8.70
2019-05-04T10:27:09.811Z,8.90
2019-05-04T10:29:39.180Z,9.00
2019-05-04T10:32:08.780Z,8.70
2019-05-04T10:34:38.336Z,8.80
2019-05-04T10:37:08.147Z,9.00
2019-05-04T10:39:37.632Z,9.20
2019-05-04T10:42:06.900Z,9.20
2019-05-04T10:44:36.187Z,9.10
2019-05-04T10:47:05.482Z,9.10
2019-05-04T10:49:35.302Z,8.70
2019-05-04T10:52:04.874Z,8.90
2019-05-04T10:54:34.474Z,8.60
2019-05-04T10:57:04.782Z,8.70
2019-05-04T10:59:35.485Z,8.90
2019-05-04T11:02:05.319Z,8.90
2019-05-04T11:04:35.725Z,8.90
2019-05-04T11:07:05.486Z,8.90
2019-05-04T11:09:35.231Z,8.80
2019-05-04T11:12:05.215Z,8.80
2019-05-04T11:14:34.922Z,8.70
2019-05-04T11:17:04.860Z,8.80
2019-05-04T11:19:34.796Z,8.80
2019-05-04T11:22:05.013Z,8.90
2019-05-04T11:24:35.694Z,9.00
2019-05-04T11:27:16.035Z,8.90
2019-05-04T11:29:45.339Z,8.90
2019-05-04T11:32:16.323Z,8.70
2019-05-04T11:34:47.752Z,8.90
2019-05-04T11:37:16.603Z,9.10
2019-05-04T11:39:45.895Z,9.00
2019-05-04T11:42:15.472Z,9.00
2019-05-04T11:44:44.767Z,9.20
2019-05-04T11:47:14.843Z,9.50
2019-05-04T11:49:44.758Z,9.50
2019-05-04T11:52:14.726Z,9.70
2019-05-04T11:54:44.868Z,9.80
2019-05-04T11:57:14.765Z,9.70
2019-05-04T11:59:45.207Z,9.90
2019-05-04T12:02:14.735Z,10.20
2019-05-04T12:05:00.998Z,10.50
2019-05-04T12:07:41.083Z,10.90
2019-05-04T12:10:12.263Z,10.90
2019-05-04T12:12:41.552Z,11.00
2019-05-04T12:15:10.895Z,11.20
2019-05-04T12:17:40.192Z,11.50
2019-05-04T12:20:10.619Z,11.80
2019-05-04T12:22:40.090Z,11.80
2019-05-04T12:25:09.659Z,11.90
2019-05-04T12:30:20.512Z,11.90
2019-05-04T12:32:49.785Z,12.00
2019-05-04T12:35:19.446Z,12.00
2019-05-04T12:37:49.027Z,12.10
2019-05-04T12:40:18.464Z,11.80
2019-05-04T12:42:47.748Z,11.90
2019-05-04T12:45:19.495Z,12.20
2019-05-04T12:47:48.872Z,12.20
2019-05-04T12:50:18.131Z,12.30
2019-05-04T12:52:47.404Z,12.60
2019-05-04T12:55:16.830Z,12.70
2019-05-04T12:57:46.102Z,12.80
2019-05-04T13:00:18.654Z,12.30
2019-05-04T13:02:48.092Z,12.00
2019-05-04T13:05:27.856Z,12.20
2019-05-04T13:07:48.926Z,12.60
2019-05-04T13:10:18.436Z,13.00
2019-05-04T13:12:47.738Z,12.90
2019-05-04T13:15:17.150Z,12.90
2019-05-04T13:17:50.551Z,12.90
2019-05-04T13:20:19.843Z,13.00
2019-05-04T13:22:49.356Z,13.30
2019-05-04T13:25:18.876Z,13.40
2019-05-04T13:27:48.175Z,13.70
2019-05-04T13:30:17.726Z,14.40
2019-05-04T13:32:47.124Z,14.90
2019-05-04T13:35:16.659Z,15.10
2019-05-04T13:37:45.930Z,14.90
2019-05-04T13:40:15.279Z,14.70
2019-05-04T13:42:45.027Z,14.40
2019-05-04T13:45:15.931Z,14.40
2019-05-04T13:47:45.295Z,14.20
2019-05-04T13:50:14.883Z,14.00
2019-05-04T13:52:47.710Z,13.70
2019-05-04T13:55:26.117Z,13.40
2019-05-04T13:58:06.628Z,13.10
2019-05-04T14:00:40.586Z,12.70
2019-05-04T14:03:11.570Z,11.80
2019-05-04T14:05:40.939Z,10.90
2019-05-04T14:08:10.243Z,10.30
2019-05-04T14:10:39.599Z,10.00
2019-05-04T14:13:08.950Z,9.60
2019-05-04T14:15:38.334Z,9.50
2019-05-04T14:18:07.672Z,9.50
2019-05-04T14:20:37.008Z,9.50
2019-05-04T14:23:06.419Z,9.80
2019-05-04T14:25:35.767Z,9.90
2019-05-04T14:28:05.414Z,10.10
2019-05-04T14:30:35.097Z,10.00
2019-05-04T14:33:04.958Z,10.00
2019-05-04T14:35:35.346Z,9.90
2019-05-04T14:38:05.206Z,9.90
2019-05-04T14:40:34.746Z,10.20
2019-05-04T14:43:05.733Z,10.40
2019-05-04T14:45:54.336Z,10.60
2019-05-04T14:48:28.243Z,10.50
2019-05-04T14:50:57.531Z,10.60
2019-05-04T14:53:26.883Z,10.50
2019-05-04T14:55:56.224Z,10.80
2019-05-04T14:58:25.482Z,11.00
2019-05-04T15:00:55.349Z,11.20
2019-05-04T15:03:25.035Z,12.00
2019-05-04T15:05:55.334Z,12.80
2019-05-04T15:08:24.746Z,13.40
2019-05-04T15:10:54.336Z,13.50
2019-05-04T15:13:25.065Z,13.50
2019-05-04T15:15:55.177Z,13.60
2019-05-04T15:18:26.222Z,13.70
2019-05-04T15:20:57.188Z,13.40
2019-05-04T15:23:26.454Z,13.20
2019-05-04T15:25:55.747Z,13.30
2019-05-04T15:28:25.029Z,13.10
2019-05-04T15:30:54.319Z,12.80
2019-05-04T15:33:24.347Z,13.10
2019-05-04T15:35:54.639Z,13.20
2019-05-04T15:38:24.705Z,13.40
2019-05-04T15:40:54.303Z,13.70
2019-05-04T15:43:25.320Z,13.70
2019-05-04T15:45:54.933Z,13.30
2019-05-04T15:48:24.664Z,13.00
2019-05-04T15:50:56.019Z,13.20
2019-05-04T15:53:34.727Z,13.20
2019-05-04T15:56:22.770Z,13.20
2019-05-04T15:59:14.386Z,13.20
2019-05-04T16:01:43.879Z,13.00
2019-05-04T16:04:14.924Z,13.10
2019-05-04T16:06:44.930Z,13.00
2019-05-04T16:09:15.427Z,12.90
2019-05-04T16:11:45.036Z,12.90
2019-05-04T16:14:14.713Z,12.90
2019-05-04T16:16:44.760Z,13.10
2019-05-04T16:19:15.001Z,13.30
2019-05-04T16:21:44.866Z,13.40
2019-05-04T16:24:16.324Z,12.80
2019-05-04T16:26:45.235Z,12.50
2019-05-04T16:29:17.234Z,12.20
2019-05-04T16:31:45.579Z,11.90
2019-05-04T16:34:14.935Z,12.10
2019-05-04T16:36:44.986Z,12.10
2019-05-04T16:39:14.374Z,11.80
2019-05-04T16:41:44.456Z,11.70
2019-05-04T16:44:14.199Z,11.80
2019-05-04T16:46:44.562Z,11.80
2019-05-04T16:49:15.383Z,11.60
2019-05-04T16:52:02.651Z,11.40
2019-05-04T16:54:34.248Z,11.30
2019-05-04T16:57:04.543Z,10.80
2019-05-04T16:59:34.586Z,10.40
2019-05-04T17:02:08.546Z,9.90
2019-05-04T17:04:39.735Z,9.40
2019-05-04T17:07:09.028Z,9.10
2019-05-04T17:09:38.314Z,8.80
2019-05-04T17:12:07.592Z,8.80
2019-05-04T17:14:37.151Z,8.80
2019-05-04T17:17:06.435Z,8.70
2019-05-04T17:19:35.735Z,8.70
2019-05-04T17:22:09.084Z,8.60
2019-05-04T17:24:41.331Z,8.60
2019-05-04T17:27:28.849Z,8.80
2019-05-04T17:29:58.416Z,8.70
2019-05-04T17:32:27.980Z,8.80
2019-05-04T17:34:57.542Z,9.00
2019-05-04T17:37:26.811Z,9.30
2019-05-04T17:39:56.322Z,9.40
2019-05-04T17:42:27.479Z,9.50
2019-05-04T17:44:58.840Z,9.50
2019-05-04T17:47:28.108Z,9.40
2019-05-04T17:49:57.387Z,9.50
2019-05-04T17:52:26.679Z,9.60
2019-05-04T17:54:55.945Z,9.80
2019-05-04T17:57:25.468Z,9.90
2019-05-04T18:00:05.358Z,10.00
2019-05-04T18:02:39.028Z,10.10
2019-05-04T18:05:08.379Z,10.20
2019-05-04T18:07:37.892Z,10.10
2019-05-04T18:10:07.723Z,10.00
2019-05-04T18:12:45.422Z,9.80
2019-05-04T18:15:16.627Z,9.80
2019-05-04T18:17:57.049Z,9.60
2019-05-04T18:20:26.322Z,9.40
2019-05-04T18:22:55.607Z,9.10
2019-05-04T18:25:24.903Z,9.20
2019-05-04T18:27:54.564Z,9.00
2019-05-04T18:30:35.447Z,8.80
2019-05-04T18:33:05.684Z,8.60
2019-05-04T18:35:35.024Z,8.60
2019-05-04T18:38:04.998Z,8.70
2019-05-04T18:40:39.746Z,8.70
2019-05-04T18:43:11.303Z,8.50
2019-05-04T18:46:00.510Z,7.90
2019-05-04T18:48:34.428Z,7.50
2019-05-04T18:51:05.051Z,7.20
2019-05-04T18:53:35.016Z,7.00
2019-05-04T18:56:04.602Z,6.90
2019-05-04T18:58:34.534Z,6.90
2019-05-04T19:01:05.591Z,6.80
2019-05-04T19:03:39.909Z,6.70
2019-05-04T19:06:26.480Z,6.70
2019-05-04T19:12:00.912Z,6.80
2019-05-04T19:14:48.693Z,6.70
2019-05-04T19:17:28.356Z,6.80
2019-05-04T19:19:56.927Z,6.70
2019-05-04T19:22:26.203Z,6.60
2019-05-04T19:24:57.162Z,6.70
2019-05-04T19:27:26.417Z,6.70
2019-05-04T19:29:55.744Z,6.90
2019-05-04T19:32:24.987Z,6.80
2019-05-04T19:34:55.307Z,6.80
2019-05-04T19:37:24.761Z,6.90
2019-05-04T19:39:55.031Z,7.00
2019-05-04T19:42:45.115Z,7.10
2019-05-04T19:45:21.490Z,7.10
2019-05-04T19:47:51.123Z,7.00
2019-05-04T19:50:20.395Z,7.00
2019-05-04T19:52:49.687Z,6.90
2019-05-04T19:55:18.964Z,6.80
2019-05-04T19:57:48.248Z,6.70
2019-05-04T20:00:34.448Z,6.60
2019-05-04T20:03:04.757Z,6.50
2019-05-04T20:05:35.134Z,6.40
2019-05-04T20:08:12.202Z,6.30
2019-05-04T20:10:46.059Z,6.30
2019-05-04T20:13:15.457Z,6.10
2019-05-04T20:15:45.886Z,6.10
2019-05-04T20:18:15.178Z,6.00
2019-05-04T20:20:46.421Z,5.90
2019-05-04T20:23:15.434Z,5.80
2019-05-04T20:25:45.043Z,6.00
2019-05-04T20:28:14.888Z,5.80
2019-05-04T20:30:44.877Z,5.80
2019-05-04T20:33:15.307Z,5.90
2019-05-04T20:35:46.179Z,5.70
2019-05-04T20:38:15.609Z,5.80
2019-05-04T20:40:45.059Z,5.80
2019-05-04T20:43:15.143Z,6.00
2019-05-04T20:45:46.324Z,5.90
2019-05-04T20:48:29.476Z,5.90
2019-05-04T20:50:58.871Z,6.00
2019-05-04T20:53:29.834Z,6.00
2019-05-04T20:55:59.154Z,6.00
2019-05-04T20:58:28.442Z,6.00
2019-05-04T21:00:57.722Z,6.00
2019-05-04T21:03:34.760Z,6.00
2019-05-04T21:06:14.818Z,5.90
2019-05-04T21:08:44.692Z,5.90
2019-05-04T21:11:14.757Z,5.80
2019-05-04T21:13:44.677Z,5.70
2019-05-04T21:16:14.874Z,5.70
2019-05-04T21:18:46.132Z,5.70
2019-05-04T21:21:29.094Z,5.60
2019-05-04T21:23:58.660Z,5.50
2019-05-04T21:26:28.262Z,5.60
2019-05-04T21:28:57.636Z,5.70
2019-05-04T21:31:27.171Z,5.80
2019-05-04T21:33:56.443Z,6.00
2019-05-04T21:36:25.810Z,5.90
2019-05-04T21:38:55.379Z,5.80
2019-05-04T21:41:25.033Z,5.80
2019-05-04T21:43:55.946Z,5.70
2019-05-04T21:46:26.860Z,5.70
2019-05-04T21:49:14.460Z,5.70
2019-05-04T21:51:44.817Z,5.60
2019-05-04T21:54:15.083Z,5.70
2019-05-04T21:56:44.756Z,5.60
2019-05-04T21:59:14.677Z,5.50
2019-05-04T22:01:57.687Z,5.50
2019-05-04T22:04:31.050Z,5.50
2019-05-04T22:07:00.903Z,5.50
2019-05-04T22:09:30.184Z,5.60
2019-05-04T22:11:59.481Z,5.60
2019-05-04T22:14:29.020Z,5.70
2019-05-04T22:16:58.300Z,5.70
2019-05-04T22:19:27.579Z,5.70
2019-05-04T22:21:56.866Z,5.50
2019-05-04T22:24:26.415Z,5.40
2019-05-04T22:26:55.710Z,5.30
2019-05-04T22:29:25.008Z,5.20
2019-05-04T22:31:54.887Z,5.30
2019-05-04T22:34:24.301Z,5.30
2019-05-04T22:36:55.482Z,5.00
2019-05-04T22:39:25.109Z,4.90
2019-05-04T22:41:54.968Z,5.00
2019-05-04T22:44:24.661Z,5.00
2019-05-04T22:46:54.690Z,4.90
2019-05-04T22:49:24.668Z,4.90
2019-05-04T22:52:10.793Z,4.80
2019-05-04T22:54:29.495Z,4.90
2019-05-04T22:56:58.774Z,5.00
2019-05-04T22:59:29.711Z,4.90
2019-05-04T23:02:12.375Z,4.80
2019-05-04T23:04:45.994Z,4.80
2019-05-04T23:07:16.650Z,4.80
2019-05-04T23:09:46.073Z,4.80
2019-05-04T23:12:16.099Z,4.80
2019-05-04T23:14:45.467Z,4.90
2019-05-04T23:17:15.250Z,4.90
2019-05-04T23:19:45.140Z,4.90
2019-05-04T23:22:22.115Z,5.00
2019-05-04T23:24:51.447Z,4.90
2019-05-04T23:27:21.024Z,4.80
2019-05-04T23:29:50.323Z,4.80
2019-05-04T23:32:19.600Z,4.80
2019-05-04T23:34:49.131Z,4.80
2019-05-04T23:37:18.411Z,4.70
2019-05-04T23:39:47.700Z,4.70
2019-05-04T23:42:16.975Z,4.80
2019-05-04T23:44:46.270Z,4.80
2019-05-04T23:47:32.155Z,4.70
2019-05-04T23:50:01.452Z,4.70
2019-05-04T23:52:30.727Z,4.70
2019-05-04T23:55:00.018Z,4.70
2019-05-04T23:57:29.367Z,4.70
2019-05-04T23:59:58.652Z,4.80
